createdAt,value
2018-03-02T00:00:54.118Z,57.03
2018-03-02T00:03:21.652Z,49.22
2018-03-02T00:05:49.970Z,56.00
2018-03-02T00:08:17.529Z,50.47
2018-03-02T00:10:45.093Z,48.22
2018-03-02T00:13:12.634Z,58.47
2018-03-02T00:15:40.166Z,59.58
2018-03-02T00:18:08.492Z,52.13
2018-03-02T00:20:36.016Z,50.00
2018-03-02T00:23:03.576Z,54.45
2018-03-02T00:25:31.870Z,48.95
2018-03-02T00:27:59.411Z,52.55
2018-03-02T00:30:27.696Z,63.42
2018-03-02T00:32:55.252Z,48.47
2018-03-02T00:35:22.781Z,46.83
2018-03-02T00:37:50.327Z,53.10
2018-03-02T00:40:17.857Z,46.10
2018-03-02T00:42:45.402Z,51.37
2018-03-02T00:45:12.986Z,57.22
2018-03-02T00:47:40.533Z,55.80
2018-03-02T00:50:08.095Z,57.70
2018-03-02T00:52:35.616Z,52.85
2018-03-02T00:55:03.930Z,46.55
2018-03-02T00:57:31.481Z,50.88
2018-03-02T00:59:59.031Z,52.55
2018-03-02T01:02:26.560Z,55.03
2018-03-02T01:04:54.865Z,53.53
2018-03-02T01:07:22.406Z,52.88
2018-03-02T01:09:50.693Z,56.00
2018-03-02T01:12:18.266Z,57.33
2018-03-02T01:14:45.803Z,57.38
2018-03-02T01:17:14.119Z,55.78
2018-03-02T01:19:41.635Z,45.88
2018-03-02T01:22:09.943Z,52.08
2018-03-02T01:24:37.502Z,50.58
2018-03-02T01:27:05.081Z,47.83
2018-03-02T01:29:32.621Z,61.45
2018-03-02T01:32:00.158Z,57.50
2018-03-02T01:34:28.479Z,52.85
2018-03-02T01:36:56.031Z,46.67
2018-03-02T01:39:23.565Z,54.95
2018-03-02T01:41:51.100Z,62.20
2018-03-02T01:44:19.431Z,54.67
2018-03-02T01:46:46.957Z,59.17
2018-03-02T01:49:14.498Z,56.88
2018-03-02T01:51:49.511Z,56.17
2018-03-02T01:54:17.086Z,56.03
2018-03-02T01:56:45.386Z,48.42
2018-03-02T01:59:12.910Z,54.80
2018-03-02T02:01:40.472Z,56.72
2018-03-02T02:04:07.999Z,60.10
2018-03-02T02:06:35.547Z,56.33
2018-03-02T02:09:03.064Z,57.60
2018-03-02T02:11:31.382Z,61.17
2018-03-02T02:13:58.900Z,50.20
2018-03-02T02:16:27.239Z,57.92
2018-03-02T02:18:54.791Z,52.50
2018-03-02T02:21:23.075Z,51.88
2018-03-02T02:23:52.418Z,52.75
2018-03-02T02:26:20.760Z,50.92
2018-03-02T02:28:48.320Z,58.70
2018-03-02T02:31:15.856Z,50.03
2018-03-02T02:33:43.392Z,64.62
2018-03-02T02:36:10.911Z,55.45
2018-03-02T02:38:38.451Z,54.97
2018-03-02T02:41:05.982Z,48.30
2018-03-02T02:43:33.522Z,54.33
2018-03-02T02:46:01.065Z,52.78
2018-03-02T02:48:29.357Z,53.25
2018-03-02T02:50:56.910Z,59.83
2018-03-02T02:53:24.459Z,54.28
2018-03-02T02:55:52.765Z,52.75
2018-03-02T02:58:20.288Z,51.67
2018-03-02T03:00:48.609Z,52.08
2018-03-02T03:03:16.152Z,56.70
2018-03-02T03:05:43.707Z,50.63
2018-03-02T03:08:11.235Z,55.58
2018-03-02T03:10:39.520Z,55.83
2018-03-02T03:13:07.830Z,49.50
2018-03-02T03:15:35.388Z,57.92
2018-03-02T03:18:02.958Z,50.20
2018-03-02T03:20:30.562Z,55.17
2018-03-02T03:22:58.133Z,50.55
2018-03-02T03:25:26.451Z,50.63
2018-03-02T03:27:54.023Z,50.55
2018-03-02T03:30:21.553Z,50.78
2018-03-02T03:32:49.084Z,44.67
2018-03-02T03:35:16.628Z,59.45
2018-03-02T03:37:44.155Z,53.65
2018-03-02T03:40:11.727Z,53.30
2018-03-02T03:42:40.060Z,48.38
2018-03-02T03:45:07.599Z,57.00
2018-03-02T03:47:35.937Z,56.50
2018-03-02T03:50:03.492Z,53.53
2018-03-02T03:52:31.062Z,54.85
2018-03-02T03:54:58.618Z,58.47
2018-03-02T03:57:26.152Z,54.80
2018-03-02T03:59:53.718Z,56.60
2018-03-02T04:02:21.286Z,56.40
2018-03-02T04:04:48.822Z,50.42
2018-03-02T04:07:16.362Z,54.92
2018-03-02T04:09:44.682Z,61.63
2018-03-02T04:12:12.250Z,55.58
2018-03-02T04:14:39.791Z,60.67
2018-03-02T04:17:07.338Z,46.58
2018-03-02T04:19:34.918Z,56.20
2018-03-02T04:22:02.447Z,50.80
2018-03-02T04:24:30.769Z,56.40
2018-03-02T04:26:58.312Z,57.30
2018-03-02T04:29:25.855Z,51.05
2018-03-02T04:31:53.455Z,53.58
2018-03-02T04:34:21.013Z,63.42
2018-03-02T04:36:48.572Z,55.08
2018-03-02T04:39:16.150Z,51.08
2018-03-02T04:41:43.715Z,69.05
2018-03-02T04:44:11.251Z,59.58
2018-03-02T04:46:38.815Z,54.83
2018-03-02T04:49:06.348Z,60.20
2018-03-02T04:51:33.886Z,57.30
2018-03-02T04:54:01.456Z,62.45
2018-03-02T04:56:29.012Z,55.63
2018-03-02T04:58:56.545Z,55.22
2018-03-02T05:01:24.883Z,56.90
2018-03-02T05:03:52.417Z,54.60
2018-03-02T05:06:19.965Z,59.08
2018-03-02T05:08:47.539Z,61.30
2018-03-02T05:11:15.059Z,65.85
2018-03-02T05:13:43.343Z,50.60
2018-03-02T05:16:11.664Z,56.95
2018-03-02T05:18:39.198Z,43.60
2018-03-02T05:21:06.824Z,63.25
2018-03-02T05:23:34.347Z,53.97
2018-03-02T05:26:01.903Z,54.05
2018-03-02T05:28:29.448Z,56.80
2018-03-02T05:30:57.012Z,63.50
2018-03-02T05:33:24.550Z,61.33
2018-03-02T05:35:52.102Z,49.22
2018-03-02T05:38:19.670Z,57.70
2018-03-02T05:40:47.191Z,54.00
2018-03-02T05:43:15.499Z,59.17
2018-03-02T05:45:43.058Z,57.42
2018-03-02T05:48:10.600Z,54.55
2018-03-02T05:50:38.916Z,58.50
2018-03-02T05:53:06.458Z,54.83
2018-03-02T05:55:33.990Z,52.83
2018-03-02T05:58:02.319Z,65.05
2018-03-02T06:00:29.880Z,64.82
2018-03-02T06:02:57.398Z,57.88
2018-03-02T06:05:24.942Z,41.58
2018-03-02T06:07:53.287Z,70.90
2018-03-02T06:10:20.835Z,55.83
2018-03-02T06:12:48.385Z,54.90
2018-03-02T06:15:15.961Z,56.60
2018-03-02T06:17:43.506Z,57.97
2018-03-02T06:20:11.026Z,65.37
2018-03-02T06:22:39.405Z,55.50
2018-03-02T06:25:06.937Z,62.28
2018-03-02T06:27:34.479Z,57.22
2018-03-02T06:30:02.043Z,56.83
2018-03-02T06:32:29.554Z,57.33
2018-03-02T06:34:57.083Z,68.35
2018-03-02T06:37:24.638Z,59.47
2018-03-02T06:39:52.175Z,56.42
2018-03-02T06:42:19.699Z,44.45
2018-03-02T06:44:47.243Z,59.28
2018-03-02T06:47:15.565Z,64.95
2018-03-02T06:49:43.078Z,59.25
2018-03-02T06:52:11.409Z,61.13
2018-03-02T06:54:38.943Z,44.83
2018-03-02T06:57:06.508Z,64.65
2018-03-02T06:59:34.087Z,57.62
2018-03-02T07:02:01.644Z,59.20
2018-03-02T07:04:29.156Z,59.05
2018-03-02T07:06:57.470Z,70.20
2018-03-02T07:09:25.007Z,24.15
2018-03-02T07:11:52.525Z,59.22
2018-03-02T07:14:20.082Z,56.47
2018-03-02T07:16:47.614Z,62.08
2018-03-02T07:19:15.161Z,66.78
2018-03-02T07:21:42.724Z,51.20
2018-03-02T07:24:10.258Z,55.45
2018-03-02T07:26:37.780Z,63.60
2018-03-02T07:29:05.350Z,63.38
2018-03-02T07:31:33.660Z,61.97
2018-03-02T07:34:01.209Z,32.00
2018-03-02T07:36:28.774Z,64.05
2018-03-02T07:38:56.284Z,62.58
2018-03-02T07:41:23.797Z,54.88
2018-03-02T07:43:51.351Z,59.03
2018-03-02T07:46:19.906Z,73.60
2018-03-02T07:48:48.207Z,57.88
2018-03-02T07:51:15.775Z,48.22
2018-03-02T07:53:43.306Z,70.05
2018-03-02T07:56:11.607Z,57.70
2018-03-02T07:58:39.150Z,64.72
2018-03-02T08:01:06.696Z,61.97
2018-03-02T08:03:34.993Z,66.55
2018-03-02T08:06:02.544Z,51.85
2018-03-02T08:08:30.824Z,57.22
2018-03-02T08:10:58.361Z,83.97
2018-03-02T08:13:26.706Z,66.50
2018-03-02T08:15:54.242Z,55.75
2018-03-02T08:18:21.748Z,60.60
2018-03-02T08:20:49.311Z,61.47
2018-03-02T08:23:16.844Z,58.55
2018-03-02T08:25:44.374Z,65.22
2018-03-02T08:28:11.923Z,69.22
2018-03-02T08:30:39.465Z,63.75
2018-03-02T08:33:07.743Z,69.50
2018-03-02T08:35:36.060Z,68.50
2018-03-02T08:38:03.600Z,73.10
2018-03-02T08:40:31.127Z,69.82
2018-03-02T08:42:59.441Z,75.15
2018-03-02T08:45:26.971Z,65.28
2018-03-02T08:47:55.262Z,66.72
2018-03-02T08:50:22.828Z,65.05
2018-03-02T08:52:50.363Z,58.92
2018-03-02T08:55:18.653Z,65.78
2018-03-02T08:57:46.205Z,40.72
2018-03-02T09:00:13.777Z,69.37
2018-03-02T09:02:41.326Z,55.53
2018-03-02T09:05:09.673Z,75.97
2018-03-02T09:07:37.192Z,62.80
2018-03-02T09:10:04.726Z,60.78
2018-03-02T09:12:33.039Z,48.60
2018-03-02T09:15:00.576Z,66.78
2018-03-02T09:17:28.103Z,68.00
2018-03-02T09:19:56.440Z,72.12
2018-03-02T09:22:23.985Z,75.15
2018-03-02T09:24:51.523Z,68.80
2018-03-02T09:27:19.084Z,72.68
2018-03-02T09:29:46.614Z,73.57
2018-03-02T09:32:14.914Z,68.70
2018-03-02T09:34:42.466Z,69.03
2018-03-02T09:37:10.743Z,66.22
2018-03-02T09:39:39.035Z,67.95
2018-03-02T09:42:06.577Z,68.60
2018-03-02T09:44:34.863Z,64.25
2018-03-02T09:47:02.390Z,65.80
2018-03-02T09:49:29.957Z,76.25
2018-03-02T09:51:58.271Z,78.18
2018-03-02T09:54:25.806Z,71.68
2018-03-02T09:56:54.108Z,78.62
2018-03-02T09:59:21.673Z,84.05
2018-03-02T10:01:49.956Z,74.03
2018-03-02T10:04:17.516Z,71.93
2018-03-02T10:06:45.075Z,67.45
2018-03-02T10:09:12.600Z,72.32
2018-03-02T10:11:40.936Z,76.60
2018-03-02T10:14:08.513Z,68.62
2018-03-02T10:16:36.068Z,74.07
2018-03-02T10:19:03.610Z,70.68
2018-03-02T10:21:31.144Z,75.18
2018-03-02T10:23:58.687Z,62.62
2018-03-02T10:26:26.271Z,73.75
2018-03-02T10:28:53.978Z,75.75
2018-03-02T10:31:22.280Z,71.45
2018-03-02T10:33:49.816Z,70.50
2018-03-02T10:36:18.115Z,71.70
2018-03-02T10:38:45.656Z,66.20
2018-03-02T10:41:13.978Z,70.82
2018-03-02T10:43:41.581Z,72.82
2018-03-02T10:46:09.114Z,68.90
2018-03-02T10:48:36.670Z,71.93
2018-03-02T10:51:04.201Z,70.50
2018-03-02T10:53:31.736Z,68.40
2018-03-02T10:56:00.054Z,75.65
2018-03-02T10:58:27.596Z,72.72
2018-03-02T11:00:55.134Z,72.15
2018-03-02T11:03:23.479Z,97.15
2018-03-02T11:05:51.032Z,70.50
2018-03-02T11:08:18.570Z,76.70
2018-03-02T11:10:46.139Z,70.22
2018-03-02T11:13:13.666Z,70.30
2018-03-02T11:15:41.211Z,77.03
2018-03-02T11:18:09.536Z,84.15
2018-03-02T11:20:37.059Z,58.20
2018-03-02T11:23:04.606Z,79.70
2018-03-02T11:25:32.916Z,74.25
2018-03-02T11:28:00.455Z,64.47
2018-03-02T11:30:27.996Z,78.30
2018-03-02T11:32:56.315Z,69.30
2018-03-02T11:35:23.837Z,75.12
2018-03-02T11:37:52.131Z,76.00
2018-03-02T11:40:19.697Z,75.20
2018-03-02T11:42:47.215Z,77.95
2018-03-02T11:45:16.236Z,74.47
2018-03-02T11:47:43.803Z,69.00
2018-03-02T11:50:11.353Z,70.15
2018-03-02T11:52:38.894Z,64.43
2018-03-02T11:55:07.260Z,74.05
2018-03-02T11:57:34.795Z,85.07
2018-03-02T12:00:02.324Z,76.68
2018-03-02T12:02:29.865Z,74.97
2018-03-02T12:04:57.387Z,77.80
2018-03-02T12:07:24.914Z,80.30
2018-03-02T12:09:52.471Z,75.85
2018-03-02T12:12:20.017Z,70.78
2018-03-02T12:14:47.542Z,65.35
2018-03-02T12:17:15.888Z,73.32
2018-03-02T12:19:43.438Z,74.90
2018-03-02T12:22:11.730Z,71.12
2018-03-02T12:24:39.273Z,80.35
2018-03-02T12:27:06.813Z,87.53
2018-03-02T12:29:34.358Z,77.00
2018-03-02T12:32:01.907Z,72.28
2018-03-02T12:34:30.191Z,76.10
2018-03-02T12:36:57.722Z,77.50
2018-03-02T12:39:26.050Z,74.60
2018-03-02T12:41:53.580Z,71.55
2018-03-02T12:44:21.129Z,66.72
2018-03-02T12:46:49.454Z,66.70
2018-03-02T12:49:17.015Z,79.50
2018-03-02T12:51:44.545Z,69.30
2018-03-02T12:54:12.108Z,71.10
2018-03-02T12:56:39.907Z,60.22
2018-03-02T12:59:07.450Z,62.22
2018-03-02T13:01:35.033Z,67.47
2018-03-02T13:04:02.565Z,67.05
2018-03-02T13:06:30.083Z,64.43
2018-03-02T13:08:58.384Z,72.68
2018-03-02T13:11:25.898Z,61.28
2018-03-02T13:13:53.408Z,69.00
2018-03-02T13:16:20.960Z,72.82
2018-03-02T13:18:48.498Z,72.72
2018-03-02T13:21:16.786Z,62.15
2018-03-02T13:23:44.336Z,71.43
2018-03-02T13:26:24.303Z,71.03
2018-03-02T13:28:52.737Z,67.57
2018-03-02T13:31:20.242Z,68.00
2018-03-02T13:33:59.839Z,71.35
2018-03-02T13:36:27.360Z,68.72
2018-03-02T13:38:54.872Z,76.18
2018-03-02T13:41:35.182Z,71.87
2018-03-02T13:44:02.702Z,72.82
2018-03-02T13:46:31.003Z,67.97
2018-03-02T13:49:10.371Z,72.20
2018-03-02T13:51:37.925Z,77.05
2018-03-02T13:54:05.455Z,67.30
2018-03-02T13:56:44.752Z,73.50
2018-03-02T13:59:13.034Z,69.15
2018-03-02T14:01:41.328Z,74.57
2018-03-02T14:04:20.638Z,65.18
2018-03-02T14:06:48.160Z,70.35
2018-03-02T14:09:15.702Z,64.35
2018-03-02T14:11:43.245Z,72.85
2018-03-02T14:14:10.773Z,68.45
2018-03-02T14:16:38.307Z,70.65
2018-03-02T14:19:06.623Z,73.87
2018-03-02T14:21:34.931Z,68.22
2018-03-02T14:24:03.484Z,75.62
2018-03-02T14:26:31.094Z,84.13
2018-03-02T14:28:58.607Z,67.65
2018-03-02T14:31:26.996Z,70.05
2018-03-02T14:33:54.550Z,76.40
2018-03-02T14:36:22.094Z,68.40
2018-03-02T14:38:50.395Z,72.40
2018-03-02T14:41:17.943Z,64.40
2018-03-02T14:43:46.225Z,66.60
2018-03-02T14:46:13.769Z,62.38
2018-03-02T14:48:42.107Z,66.68
2018-03-02T14:51:09.626Z,68.10
2018-03-02T14:53:37.146Z,70.95
2018-03-02T14:56:04.712Z,68.20
2018-03-02T14:58:33.006Z,63.47
2018-03-02T15:01:01.281Z,66.82
2018-03-02T15:03:29.615Z,70.93
2018-03-02T15:05:57.124Z,69.15
2018-03-02T15:08:24.643Z,67.45
2018-03-02T15:10:52.188Z,75.00
2018-03-02T15:13:19.703Z,65.35
2018-03-02T15:15:47.243Z,76.68
2018-03-02T15:18:15.620Z,73.55
2018-03-02T15:20:43.898Z,74.78
2018-03-02T15:23:12.183Z,76.90
2018-03-02T15:25:40.508Z,78.85
2018-03-02T15:28:08.067Z,68.03
2018-03-02T15:30:35.562Z,69.47
2018-03-02T15:33:03.110Z,72.35
2018-03-02T15:35:30.630Z,76.45
2018-03-02T15:37:58.155Z,70.70
2018-03-02T15:40:26.476Z,75.22
2018-03-02T15:42:54.014Z,85.50
2018-03-02T15:45:21.547Z,94.47
2018-03-02T15:47:49.882Z,102.80
2018-03-02T15:50:17.413Z,85.50
2018-03-02T15:52:44.947Z,75.03
2018-03-02T15:55:13.299Z,167.87
2018-03-02T15:57:40.831Z,131.27
2018-03-02T16:00:08.355Z,83.57
2018-03-02T16:02:35.937Z,163.05
2018-03-02T16:05:03.468Z,118.55
2018-03-02T16:07:31.021Z,106.90
2018-03-02T16:09:58.570Z,81.30
2018-03-02T16:12:26.855Z,73.20
2018-03-02T16:14:55.139Z,80.35
2018-03-02T16:17:22.695Z,71.28
2018-03-02T16:19:50.223Z,68.65
2018-03-02T16:22:17.766Z,93.28
2018-03-02T16:24:45.315Z,67.50
2018-03-02T16:27:12.843Z,72.43
2018-03-02T16:29:40.363Z,76.82
2018-03-02T16:32:07.906Z,78.07
2018-03-02T16:34:35.449Z,69.68
2018-03-02T16:37:02.974Z,84.20
2018-03-02T16:39:30.518Z,72.15
2018-03-02T16:41:58.070Z,76.65
2018-03-02T16:44:26.376Z,88.07
2018-03-02T16:46:53.934Z,61.28
2018-03-02T16:49:21.477Z,74.40
2018-03-02T16:51:49.022Z,79.75
2018-03-02T16:54:17.378Z,72.53
2018-03-02T16:56:44.896Z,68.75
2018-03-02T16:59:12.437Z,85.62
2018-03-02T17:01:39.986Z,77.97
2018-03-02T17:04:08.286Z,71.62
2018-03-02T17:06:35.840Z,74.10
2018-03-02T17:09:03.404Z,74.60
2018-03-02T17:11:30.929Z,81.68
2018-03-02T17:13:59.253Z,72.70
2018-03-02T17:16:26.825Z,76.72
2018-03-02T17:18:54.343Z,76.57
2018-03-02T17:21:23.294Z,77.32
2018-03-02T17:23:50.860Z,79.15
2018-03-02T17:26:18.577Z,86.35
2018-03-02T17:31:13.042Z,92.30
2018-03-02T17:33:41.339Z,81.85
2018-03-02T17:36:08.883Z,80.43
2018-03-02T17:38:37.189Z,82.60
2018-03-02T17:41:06.605Z,89.10
2018-03-02T17:43:35.673Z,88.87
2018-03-02T17:46:03.237Z,75.78
2018-03-02T17:48:30.760Z,89.97
2018-03-02T17:50:58.871Z,81.45
2018-03-02T17:53:26.436Z,83.50
2018-03-02T17:55:53.963Z,90.43
2018-03-02T17:58:22.274Z,84.68
2018-03-02T18:00:49.846Z,86.53
2018-03-02T18:03:17.371Z,81.82
2018-03-02T18:05:45.728Z,79.32
2018-03-02T18:08:13.253Z,82.10
2018-03-02T18:10:40.804Z,79.30
2018-03-02T18:13:08.330Z,84.15
2018-03-02T18:15:36.636Z,78.32
2018-03-02T18:18:04.212Z,88.65
2018-03-02T18:20:31.769Z,86.65
2018-03-02T18:22:59.323Z,92.60
2018-03-02T18:25:26.859Z,79.50
2018-03-02T18:27:54.394Z,90.12
2018-03-02T18:30:22.696Z,85.70
2018-03-02T18:32:50.224Z,85.95
2018-03-02T18:35:18.538Z,90.10
2018-03-02T18:37:46.112Z,74.87
2018-03-02T18:40:13.638Z,97.37
2018-03-02T18:42:41.938Z,89.57
2018-03-02T18:45:09.497Z,79.62
2018-03-02T18:47:37.022Z,89.78
2018-03-02T18:50:05.329Z,90.95
2018-03-02T18:52:32.887Z,80.60
2018-03-02T18:55:00.412Z,85.93
2018-03-02T18:57:28.713Z,98.47
2018-03-02T18:59:56.259Z,81.35
2018-03-02T19:02:24.547Z,93.22
2018-03-02T19:04:52.095Z,80.57
2018-03-02T19:07:19.654Z,90.45
2018-03-02T19:09:47.973Z,91.00
2018-03-02T19:12:15.523Z,84.62
2018-03-02T19:14:43.680Z,102.70
2018-03-02T19:17:11.198Z,106.22
2018-03-02T19:19:38.745Z,91.32
2018-03-02T19:22:06.299Z,89.97
2018-03-02T19:24:33.822Z,92.40
2018-03-02T19:27:01.355Z,86.12
2018-03-02T19:29:29.685Z,83.75
2018-03-02T19:31:57.229Z,89.28
2018-03-02T19:34:24.748Z,90.72
2018-03-02T19:36:53.048Z,93.75
2018-03-02T19:39:20.574Z,90.28
2018-03-02T19:41:48.890Z,88.25
2018-03-02T19:44:16.440Z,97.12
2018-03-02T19:46:43.962Z,80.00
2018-03-02T19:49:12.265Z,94.62
2018-03-02T19:51:39.887Z,85.50
2018-03-02T19:54:07.415Z,87.25
2018-03-02T19:56:34.943Z,90.90
2018-03-02T19:59:03.249Z,93.03
2018-03-02T20:01:30.785Z,104.35
2018-03-02T20:03:58.304Z,93.85
2018-03-02T20:06:25.863Z,101.25
2018-03-02T20:08:53.421Z,91.93
2018-03-02T20:11:20.938Z,107.47
2018-03-02T20:13:48.497Z,91.32
2018-03-02T20:16:16.056Z,105.87
2018-03-02T20:18:43.591Z,83.30
2018-03-02T20:21:11.146Z,87.65
2018-03-02T20:23:39.456Z,95.20
2018-03-02T20:26:06.995Z,101.20
2018-03-02T20:28:34.562Z,105.80
2018-03-02T20:31:02.095Z,103.75
2018-03-02T20:33:30.398Z,99.25
2018-03-02T20:35:57.959Z,95.87
2018-03-02T20:38:25.497Z,102.53
2018-03-02T20:40:53.780Z,92.47
2018-03-02T20:43:21.346Z,101.70
2018-03-02T20:45:48.881Z,95.72
2018-03-02T20:48:17.180Z,102.15
2018-03-02T20:50:44.744Z,101.12
2018-03-02T20:53:12.272Z,87.97
2018-03-02T20:55:40.570Z,94.03
2018-03-02T20:58:08.945Z,96.28
2018-03-02T21:00:36.523Z,86.05
2018-03-02T21:03:04.102Z,105.93
2018-03-02T21:05:31.715Z,103.82
2018-03-02T21:08:00.073Z,101.30
2018-03-02T21:10:28.417Z,100.80
2018-03-02T21:12:56.260Z,103.68
2018-03-02T21:15:24.151Z,90.65
2018-03-02T21:17:53.168Z,98.47
2018-03-02T21:20:20.776Z,95.12
2018-03-02T21:22:48.392Z,105.53
2018-03-02T21:25:16.899Z,97.22
2018-03-02T21:27:45.275Z,96.43
2018-03-02T21:30:13.620Z,103.97
2018-03-02T21:32:41.213Z,101.57
2018-03-02T21:35:09.591Z,116.40
2018-03-02T21:37:37.943Z,96.18
2018-03-02T21:40:05.527Z,93.60
2018-03-02T21:42:33.961Z,95.10
2018-03-02T21:45:01.541Z,106.85
2018-03-02T21:47:29.125Z,110.40
2018-03-02T21:49:57.498Z,88.75
2018-03-02T21:52:25.077Z,94.82
2018-03-02T21:54:52.675Z,108.57
2018-03-02T21:57:20.277Z,94.90
2018-03-02T21:59:48.622Z,93.12
2018-03-02T22:02:16.202Z,100.68
2018-03-02T22:04:43.829Z,109.97
2018-03-02T22:07:11.413Z,99.15
2018-03-02T22:09:38.988Z,95.68
2018-03-02T22:12:06.582Z,91.65
2018-03-02T22:14:34.172Z,116.28
2018-03-02T22:17:01.782Z,101.62
2018-03-02T22:19:30.147Z,98.82
2018-03-02T22:21:57.736Z,93.47
2018-03-02T22:24:26.104Z,89.90
2018-03-02T22:26:53.719Z,99.62
2018-03-02T22:29:21.297Z,100.38
2018-03-02T22:31:48.878Z,89.80
2018-03-02T22:34:16.670Z,93.93
2018-03-02T22:36:44.250Z,102.43
2018-03-02T22:39:11.828Z,107.05
2018-03-02T22:41:39.438Z,92.18
2018-03-02T22:44:07.777Z,94.40
2018-03-02T22:46:35.365Z,115.12
2018-03-02T22:49:03.734Z,103.65
2018-03-02T22:51:31.319Z,109.53
2018-03-02T22:53:59.664Z,107.07
2018-03-02T22:56:27.275Z,102.90
2018-03-02T22:58:54.855Z,101.35
2018-03-02T23:01:22.451Z,109.10
2018-03-02T23:03:50.060Z,103.12
2018-03-02T23:06:17.642Z,96.97
2018-03-02T23:08:45.212Z,97.62
2018-03-02T23:11:12.816Z,88.50
2018-03-02T23:13:40.409Z,102.50
2018-03-02T23:16:07.989Z,102.75
2018-03-02T23:18:35.594Z,99.37
2018-03-02T23:21:03.938Z,95.35
2018-03-02T23:23:31.526Z,96.00
2018-03-02T23:25:59.893Z,114.62
2018-03-02T23:28:27.479Z,97.55
2018-03-02T23:30:55.060Z,96.80
2018-03-02T23:33:22.669Z,105.10
2018-03-02T23:35:50.249Z,97.88
2018-03-02T23:38:18.593Z,102.87
2018-03-02T23:40:46.206Z,101.38
2018-03-02T23:43:13.786Z,111.47
2018-03-02T23:45:41.367Z,97.37
2018-03-02T23:48:08.982Z,94.70
2018-03-02T23:50:36.570Z,102.00
2018-03-02T23:53:04.151Z,101.38
2018-03-02T23:55:31.771Z,106.07
2018-03-02T23:57:59.333Z,89.43
